createdAt,value
2024-03-08T00:00:35.566Z,51.88
2024-03-08T00:01:35.591Z,51.66
2024-03-08T00:02:35.632Z,51.74
2024-03-08T00:03:35.619Z,51.19
2024-03-08T00:04:35.613Z,51.90
2024-03-08T00:05:35.670Z,51.26
2024-03-08T00:06:35.668Z,51.27
2024-03-08T00:07:35.670Z,51.89
2024-03-08T00:08:35.701Z,50.81
2024-03-08T00:09:35.674Z,52.23
2024-03-08T00:10:35.752Z,52.30
2024-03-08T00:11:35.888Z,51.44
2024-03-08T00:12:35.743Z,51.09
2024-03-08T00:13:35.761Z,51.66
2024-03-08T00:14:35.778Z,49.90
2024-03-08T00:15:35.791Z,51.10
2024-03-08T00:16:35.785Z,52.01
2024-03-08T00:17:35.862Z,50.64
2024-03-08T00:18:35.932Z,51.03
2024-03-08T00:19:35.861Z,52.79
2024-03-08T00:20:35.909Z,50.88
2024-03-08T00:21:35.900Z,51.30
2024-03-08T00:22:35.898Z,50.30
2024-03-08T00:23:35.955Z,51.19
2024-03-08T00:24:35.940Z,51.07
2024-03-08T00:25:35.962Z,50.09
2024-03-08T00:26:35.985Z,50.00
2024-03-08T00:27:35.997Z,50.00
2024-03-08T00:28:36.038Z,50.41
2024-03-08T00:29:36.048Z,51.42
2024-03-08T00:30:36.030Z,50.74
2024-03-08T00:31:36.056Z,50.48
2024-03-08T00:32:36.183Z,51.48
2024-03-08T00:33:36.146Z,50.76
2024-03-08T00:34:36.090Z,50.81
2024-03-08T00:35:36.130Z,50.77
2024-03-08T00:36:36.137Z,50.07
2024-03-08T00:37:36.208Z,50.21
2024-03-08T00:38:36.171Z,50.10
2024-03-08T00:39:36.166Z,51.38
2024-03-08T00:40:36.174Z,51.74
2024-03-08T00:41:36.278Z,52.41
2024-03-08T00:42:36.207Z,52.63
2024-03-08T00:43:36.211Z,50.86
2024-03-08T00:44:36.277Z,50.39
2024-03-08T00:45:36.232Z,51.11
2024-03-08T00:46:36.262Z,50.62
2024-03-08T00:47:36.376Z,50.72
2024-03-08T00:48:36.362Z,51.20
2024-03-08T00:49:36.298Z,51.62
2024-03-08T00:50:36.375Z,53.15
2024-03-08T00:51:36.346Z,52.88
2024-03-08T00:52:36.363Z,52.90
2024-03-08T00:53:36.434Z,54.00
2024-03-08T00:54:36.381Z,53.56
2024-03-08T00:55:36.410Z,52.08
2024-03-08T00:56:36.450Z,53.25
2024-03-08T00:57:36.421Z,54.08
2024-03-08T00:58:36.459Z,52.08
2024-03-08T00:59:36.513Z,52.51
2024-03-08T01:00:36.489Z,53.67
2024-03-08T01:01:36.486Z,52.94
2024-03-08T01:02:36.582Z,52.32
2024-03-08T01:03:36.516Z,53.12
2024-03-08T01:04:36.530Z,53.45
2024-03-08T01:05:36.544Z,52.41
2024-03-08T01:06:36.529Z,52.00
2024-03-08T01:07:36.645Z,51.99
2024-03-08T01:08:36.595Z,51.39
2024-03-08T01:09:36.656Z,51.28
2024-03-08T01:10:36.598Z,50.36
2024-03-08T01:11:36.728Z,51.94
2024-03-08T01:12:36.618Z,52.28
2024-03-08T01:13:37.077Z,52.23
2024-03-08T01:14:36.674Z,52.60
2024-03-08T01:15:37.541Z,51.98
2024-03-08T01:16:36.648Z,51.04
2024-03-08T01:17:36.822Z,50.97
2024-03-08T01:18:36.812Z,51.40
2024-03-08T01:19:36.751Z,52.12
2024-03-08T01:20:36.745Z,51.27
2024-03-08T01:21:36.778Z,51.01
2024-03-08T01:22:37.059Z,52.31
2024-03-08T01:23:36.773Z,51.12
2024-03-08T01:24:36.734Z,50.92
2024-03-08T01:25:36.753Z,51.86
2024-03-08T01:26:36.823Z,50.66
2024-03-08T01:27:36.825Z,50.17
2024-03-08T01:28:36.774Z,50.90
2024-03-08T01:29:36.803Z,51.21
2024-03-08T01:30:36.809Z,50.77
2024-03-08T01:31:36.825Z,50.27
2024-03-08T01:32:36.948Z,50.63
2024-03-08T01:33:37.019Z,50.06
2024-03-08T01:34:36.872Z,50.22
2024-03-08T01:35:36.926Z,50.75
2024-03-08T01:36:36.890Z,51.88
2024-03-08T01:37:36.893Z,50.72
2024-03-08T01:38:36.958Z,52.29
2024-03-08T01:39:36.948Z,51.47
2024-03-08T01:40:36.959Z,52.12
2024-03-08T01:41:37.133Z,50.64
2024-03-08T01:42:36.965Z,51.30
2024-03-08T01:43:37.029Z,51.38
2024-03-08T01:44:37.006Z,51.04
2024-03-08T01:45:37.001Z,50.72
2024-03-08T01:46:37.020Z,50.74
2024-03-08T01:47:37.153Z,50.53
2024-03-08T01:48:37.135Z,50.36
2024-03-08T01:49:37.057Z,51.09
2024-03-08T01:50:37.114Z,50.64
2024-03-08T01:51:37.079Z,51.50
2024-03-08T01:52:37.121Z,50.62
2024-03-08T01:53:37.128Z,51.59
2024-03-08T01:54:37.194Z,52.11
2024-03-08T01:55:37.159Z,51.90
2024-03-08T01:56:37.151Z,51.85
2024-03-08T01:57:37.179Z,51.87
2024-03-08T01:58:37.170Z,51.52
2024-03-08T01:59:37.190Z,51.97
2024-03-08T02:00:37.200Z,52.62
2024-03-08T02:01:37.245Z,52.46
2024-03-08T02:02:37.238Z,51.79
2024-03-08T02:03:37.251Z,51.00
2024-03-08T02:04:37.263Z,52.30
2024-03-08T02:05:37.372Z,50.62
2024-03-08T02:06:37.320Z,50.85
2024-03-08T02:07:37.283Z,50.94
2024-03-08T02:08:37.375Z,51.07
2024-03-08T02:09:37.349Z,51.60
2024-03-08T02:10:37.377Z,51.68
2024-03-08T02:11:37.880Z,51.30
2024-03-08T02:12:37.595Z,51.26
2024-03-08T02:13:37.483Z,50.82
2024-03-08T02:14:37.548Z,52.22
2024-03-08T02:15:37.494Z,51.06
2024-03-08T02:16:37.528Z,52.32
2024-03-08T02:17:37.633Z,51.21
2024-03-08T02:18:38.086Z,51.00
2024-03-08T02:19:37.562Z,51.05
2024-03-08T02:20:37.596Z,51.26
2024-03-08T02:21:37.580Z,51.54
2024-03-08T02:22:37.597Z,51.66
2024-03-08T02:23:37.637Z,51.26
2024-03-08T02:24:37.605Z,52.41
2024-03-08T02:25:37.658Z,52.10
2024-03-08T02:26:37.661Z,50.57
2024-03-08T02:27:37.665Z,50.92
2024-03-08T02:28:37.684Z,52.48
2024-03-08T02:29:37.748Z,50.19
2024-03-08T02:30:37.704Z,50.08
2024-03-08T02:31:37.746Z,53.04
2024-03-08T02:32:37.824Z,51.64
2024-03-08T02:33:37.801Z,51.28
2024-03-08T02:34:37.760Z,50.20
2024-03-08T02:35:37.783Z,51.27
2024-03-08T02:36:37.801Z,50.85
2024-03-08T02:37:37.813Z,51.21
2024-03-08T02:38:37.854Z,51.35
2024-03-08T02:39:37.828Z,51.38
2024-03-08T02:40:37.858Z,50.00
2024-03-08T02:41:37.901Z,52.65
2024-03-08T02:42:37.884Z,51.29
2024-03-08T02:43:37.882Z,52.58
2024-03-08T02:44:37.928Z,51.25
2024-03-08T02:45:37.921Z,50.63
2024-03-08T02:46:37.929Z,51.12
2024-03-08T02:47:38.045Z,50.63
2024-03-08T02:48:38.074Z,52.01
2024-03-08T02:49:37.976Z,51.62
2024-03-08T02:50:38.094Z,50.86
2024-03-08T02:51:37.998Z,51.04
2024-03-08T02:52:38.034Z,51.85
2024-03-08T02:53:38.097Z,50.14
2024-03-08T02:54:38.049Z,50.83
2024-03-08T02:55:38.066Z,51.34
2024-03-08T02:56:38.113Z,50.34
2024-03-08T02:57:38.127Z,51.52
2024-03-08T02:58:38.155Z,51.61
2024-03-08T02:59:38.173Z,50.55
2024-03-08T03:00:38.236Z,52.49
2024-03-08T03:01:38.181Z,50.93
2024-03-08T03:02:38.239Z,50.96
2024-03-08T03:03:38.217Z,51.71
2024-03-08T03:04:38.240Z,50.64
2024-03-08T03:05:38.296Z,51.03
2024-03-08T03:06:38.284Z,51.26
2024-03-08T03:07:38.282Z,50.59
2024-03-08T03:08:38.325Z,51.30
2024-03-08T03:09:38.332Z,51.74
2024-03-08T03:10:38.486Z,52.82
2024-03-08T03:11:38.403Z,52.37
2024-03-08T03:12:38.421Z,51.67
2024-03-08T03:13:38.401Z,52.41
2024-03-08T03:14:38.456Z,51.80
2024-03-08T03:15:38.450Z,50.99
2024-03-08T03:16:38.519Z,52.27
2024-03-08T03:17:38.613Z,50.72
2024-03-08T03:18:38.569Z,51.00
2024-03-08T03:19:38.510Z,51.00
2024-03-08T03:20:38.623Z,50.75
2024-03-08T03:21:38.591Z,50.31
2024-03-08T03:22:38.603Z,52.64
2024-03-08T03:23:38.622Z,53.36
2024-03-08T03:24:38.619Z,52.12
2024-03-08T03:25:38.628Z,51.97
2024-03-08T03:26:38.720Z,52.09
2024-03-08T03:27:38.663Z,51.31
2024-03-08T03:28:38.670Z,51.45
2024-03-08T03:29:38.707Z,51.19
2024-03-08T03:30:38.711Z,50.04
2024-03-08T03:31:38.752Z,51.70
2024-03-08T03:32:38.820Z,50.56
2024-03-08T03:33:38.877Z,51.01
2024-03-08T03:34:38.787Z,51.06
2024-03-08T03:35:39.402Z,51.96
2024-03-08T03:36:38.813Z,50.90
2024-03-08T03:37:38.829Z,50.48
2024-03-08T03:38:38.857Z,50.77
2024-03-08T03:39:38.829Z,51.07
2024-03-08T03:40:38.887Z,50.51
2024-03-08T03:41:38.878Z,51.13
2024-03-08T03:42:38.885Z,51.40
2024-03-08T03:43:38.901Z,50.59
2024-03-08T03:44:38.950Z,51.46
2024-03-08T03:45:39.011Z,51.10
2024-03-08T03:46:38.950Z,50.68
2024-03-08T03:47:38.995Z,51.09
2024-03-08T03:48:39.196Z,49.56
2024-03-08T03:49:39.012Z,51.86
2024-03-08T03:50:39.033Z,50.30
2024-03-08T03:51:38.992Z,50.18
2024-03-08T03:52:39.020Z,49.67
2024-03-08T03:53:39.043Z,49.18
2024-03-08T03:54:39.028Z,49.41
2024-03-08T03:55:39.039Z,49.25
2024-03-08T03:56:39.185Z,50.34
2024-03-08T03:57:39.064Z,51.35
2024-03-08T03:58:39.093Z,51.80
2024-03-08T03:59:39.102Z,52.42
2024-03-08T04:00:39.115Z,51.84
2024-03-08T04:01:39.851Z,51.17
2024-03-08T04:02:39.181Z,51.25
2024-03-08T04:03:39.166Z,51.23
2024-03-08T04:04:39.190Z,52.71
2024-03-08T04:05:39.318Z,52.00
2024-03-08T04:06:39.218Z,51.77
2024-03-08T04:07:39.242Z,51.17
2024-03-08T04:08:39.287Z,52.25
2024-03-08T04:09:39.276Z,50.77
2024-03-08T04:10:39.323Z,52.00
2024-03-08T04:11:39.399Z,52.31
2024-03-08T04:12:39.365Z,51.79
2024-03-08T04:13:39.348Z,50.97
2024-03-08T04:14:39.418Z,50.77
2024-03-08T04:15:39.393Z,51.39
2024-03-08T04:16:39.378Z,50.63
2024-03-08T04:17:39.576Z,51.77
2024-03-08T04:18:39.590Z,52.74
2024-03-08T04:19:46.786Z,50.00
2024-03-08T04:20:46.848Z,50.00
2024-03-08T04:21:46.805Z,50.00
2024-03-08T04:22:46.792Z,50.00
2024-03-08T04:23:46.878Z,50.00
2024-03-08T04:24:46.797Z,51.35
2024-03-08T04:25:46.831Z,50.00
2024-03-08T04:26:46.829Z,50.00
2024-03-08T04:27:46.845Z,52.00
2024-03-08T04:28:46.808Z,51.05
2024-03-08T04:29:46.835Z,51.30
2024-03-08T04:30:46.810Z,50.00
2024-03-08T04:31:54.017Z,50.00
2024-03-08T04:32:54.186Z,50.00
2024-03-08T04:33:54.114Z,50.00
2024-03-08T04:34:53.995Z,50.00
2024-03-08T04:35:54.080Z,50.00
2024-03-08T04:36:54.025Z,51.38
2024-03-08T04:37:54.008Z,50.89
2024-03-08T04:38:54.068Z,52.09
2024-03-08T04:39:54.001Z,52.45
2024-03-08T04:40:54.029Z,50.85
2024-03-08T04:41:54.019Z,50.00
2024-03-08T04:42:54.018Z,53.57
2024-03-08T04:43:54.040Z,50.98
2024-03-08T04:44:54.010Z,50.59
2024-03-08T04:45:54.012Z,54.49
2024-03-08T04:46:54.031Z,54.25
2024-03-08T04:47:54.124Z,53.64
2024-03-08T04:48:54.122Z,52.34
2024-03-08T04:49:54.019Z,54.34
2024-03-08T04:50:54.036Z,53.57
2024-03-08T04:51:54.043Z,57.54
2024-03-08T04:52:54.028Z,55.67
2024-03-08T04:53:54.057Z,54.77
2024-03-08T04:54:54.041Z,54.52
2024-03-08T04:55:54.032Z,54.67
2024-03-08T04:56:54.042Z,54.03
2024-03-08T04:57:54.033Z,51.68
2024-03-08T04:58:54.029Z,53.90
2024-03-08T04:59:54.061Z,51.08
2024-03-08T05:00:54.078Z,50.68
2024-03-08T05:01:54.034Z,52.76
2024-03-08T05:02:54.141Z,54.38
2024-03-08T05:03:54.050Z,51.67
2024-03-08T05:04:54.028Z,50.92
2024-03-08T05:05:54.061Z,53.25
2024-03-08T05:06:54.059Z,50.00
2024-03-08T05:07:54.044Z,51.13
2024-03-08T05:08:54.083Z,50.70
2024-03-08T05:09:54.045Z,51.48
2024-03-08T05:10:54.082Z,53.58
2024-03-08T05:11:54.063Z,52.29
2024-03-08T05:12:57.169Z,50.58
2024-03-08T05:13:54.041Z,50.70
2024-03-08T05:14:54.067Z,51.06
2024-03-08T05:15:54.061Z,50.63
2024-03-08T05:16:54.042Z,51.78
2024-03-08T05:17:54.125Z,52.03
2024-03-08T05:18:54.128Z,52.45
2024-03-08T05:19:54.047Z,52.04
2024-03-08T05:20:54.108Z,52.18
2024-03-08T05:21:54.070Z,51.13
2024-03-08T05:22:54.054Z,52.92
2024-03-08T05:23:54.105Z,51.33
2024-03-08T05:24:54.048Z,53.64
2024-03-08T05:25:54.056Z,51.69
2024-03-08T05:26:54.062Z,51.98
2024-03-08T05:27:54.053Z,53.67
2024-03-08T05:28:54.074Z,53.51
2024-03-08T05:29:54.074Z,51.06
2024-03-08T05:30:54.084Z,53.03
2024-03-08T05:31:54.247Z,52.57
2024-03-08T05:32:54.251Z,53.16
2024-03-08T05:33:54.115Z,52.35
2024-03-08T05:34:54.062Z,50.93
2024-03-08T05:35:54.122Z,53.02
2024-03-08T05:36:54.065Z,53.03
2024-03-08T05:37:54.088Z,52.72
2024-03-08T05:38:54.104Z,55.25
2024-03-08T05:39:54.082Z,51.78
2024-03-08T05:40:54.063Z,52.58
2024-03-08T05:41:54.166Z,51.62
2024-03-08T05:42:54.063Z,53.21
2024-03-08T05:43:54.067Z,53.27
2024-03-08T05:44:54.134Z,51.13
2024-03-08T05:45:54.070Z,53.83
2024-03-08T05:46:54.076Z,53.67
2024-03-08T05:47:54.228Z,51.30
2024-03-08T05:48:54.204Z,50.50
2024-03-08T05:49:54.153Z,53.66
2024-03-08T05:50:54.231Z,54.17
2024-03-08T05:51:54.276Z,54.24
2024-03-08T05:52:54.308Z,51.84
2024-03-08T05:53:54.453Z,53.95
2024-03-08T05:54:54.384Z,52.06
2024-03-08T05:55:54.439Z,51.29
2024-03-08T05:56:54.598Z,53.77
2024-03-08T05:57:54.535Z,53.10
2024-03-08T05:58:54.603Z,52.63
2024-03-08T05:59:54.709Z,50.29
2024-03-08T06:00:54.818Z,53.86
2024-03-08T06:01:54.772Z,53.07
2024-03-08T06:02:54.861Z,50.14
2024-03-08T06:03:54.828Z,53.70
2024-03-08T06:04:54.883Z,52.78
2024-03-08T06:05:54.970Z,52.90
2024-03-08T06:06:54.973Z,53.04
2024-03-08T06:07:54.995Z,51.60
2024-03-08T06:08:55.124Z,52.08
2024-03-08T06:09:55.088Z,50.97
2024-03-08T06:10:55.237Z,50.00
2024-03-08T06:11:55.742Z,51.94
2024-03-08T06:12:55.203Z,50.00
2024-03-08T06:13:55.243Z,53.26
2024-03-08T06:14:55.321Z,52.34
2024-03-08T06:15:55.285Z,53.22
2024-03-08T06:16:55.344Z,50.59
2024-03-08T06:17:55.417Z,51.87
2024-03-08T06:18:55.473Z,54.22
2024-03-08T06:19:55.469Z,53.08
2024-03-08T06:20:56.545Z,49.43
2024-03-08T06:21:55.498Z,53.38
2024-03-08T06:22:55.521Z,51.83
2024-03-08T06:23:55.551Z,52.53
2024-03-08T06:24:55.675Z,50.00
2024-03-08T06:25:55.654Z,52.29
2024-03-08T06:26:55.757Z,52.85
2024-03-08T06:27:55.766Z,51.56
2024-03-08T06:28:55.741Z,51.08
2024-03-08T06:29:55.805Z,50.95
2024-03-08T06:30:55.789Z,50.00
2024-03-08T06:31:57.248Z,52.07
2024-03-08T06:32:56.137Z,50.00
2024-03-08T06:33:56.770Z,51.82
2024-03-08T06:34:55.924Z,50.81
2024-03-08T06:35:56.022Z,52.62
2024-03-08T06:36:55.964Z,55.14
2024-03-08T06:37:55.952Z,54.75
2024-03-08T06:38:56.056Z,56.00
2024-03-08T06:39:56.034Z,55.80
2024-03-08T06:40:56.170Z,57.58
2024-03-08T06:41:56.155Z,54.93
2024-03-08T06:42:56.195Z,62.09
2024-03-08T06:43:56.327Z,70.61
2024-03-08T06:44:56.418Z,76.01
2024-03-08T06:45:56.364Z,83.81
2024-03-08T06:46:59.550Z,91.41
2024-03-08T06:47:56.496Z,91.73
2024-03-08T06:48:56.472Z,94.07
2024-03-08T06:49:56.374Z,101.16
2024-03-08T06:50:56.475Z,113.82
2024-03-08T06:51:56.371Z,130.52
2024-03-08T06:52:56.401Z,139.16
2024-03-08T06:53:56.519Z,142.68
2024-03-08T06:54:56.378Z,150.59
2024-03-08T06:55:56.387Z,179.37
2024-03-08T06:56:56.414Z,197.24
2024-03-08T06:57:56.441Z,202.50
2024-03-08T06:58:56.412Z,204.53
2024-03-08T06:59:56.456Z,201.79
2024-03-08T07:00:56.416Z,200.00
2024-03-08T07:01:56.399Z,199.91
2024-03-08T07:02:56.401Z,200.00
2024-03-08T07:03:56.383Z,200.10
2024-03-08T07:04:56.388Z,199.79
2024-03-08T07:05:56.472Z,198.70
2024-03-08T07:06:56.388Z,196.94
2024-03-08T07:07:56.395Z,194.88
2024-03-08T07:08:56.453Z,194.94
2024-03-08T07:09:56.375Z,196.69
2024-03-08T07:10:56.414Z,195.77
2024-03-08T07:11:56.492Z,194.86
2024-03-08T07:12:56.421Z,194.63
2024-03-08T07:13:56.462Z,195.46
2024-03-08T07:14:56.427Z,193.39
2024-03-08T07:15:56.464Z,194.36
2024-03-08T07:16:56.413Z,193.82
2024-03-08T07:17:56.471Z,196.08
2024-03-08T07:18:56.553Z,197.08
2024-03-08T07:19:56.421Z,198.05
2024-03-08T07:20:56.465Z,197.36
2024-03-08T07:21:56.421Z,195.70
2024-03-08T07:22:56.393Z,195.60
2024-03-08T07:23:56.488Z,198.93
2024-03-08T07:24:56.497Z,199.71
2024-03-08T07:25:56.538Z,196.51
2024-03-08T07:26:56.684Z,195.88
2024-03-08T07:27:56.646Z,196.53
2024-03-08T07:28:56.694Z,198.00
2024-03-08T07:30:56.759Z,196.69
2024-03-08T07:31:56.751Z,198.69
2024-03-08T07:32:57.290Z,197.94
2024-03-08T07:33:56.776Z,198.39
2024-03-08T07:34:56.752Z,200.00
2024-03-08T07:35:56.759Z,196.98
2024-03-08T07:36:56.779Z,198.02
2024-03-08T07:37:56.764Z,196.50
2024-03-08T07:38:56.786Z,198.50
2024-03-08T07:39:56.763Z,197.54
2024-03-08T07:40:56.748Z,197.70
2024-03-08T07:41:56.765Z,194.88
2024-03-08T07:42:56.749Z,196.91
2024-03-08T07:43:56.754Z,195.47
2024-03-08T07:44:56.800Z,196.05
2024-03-08T07:45:56.770Z,196.41
2024-03-08T07:46:58.322Z,195.88
2024-03-08T07:47:56.961Z,196.09
2024-03-08T07:48:56.816Z,194.50
2024-03-08T07:49:56.791Z,195.31
2024-03-08T07:50:57.060Z,197.72
2024-03-08T07:51:56.765Z,196.73
2024-03-08T07:52:57.220Z,196.75
2024-03-08T07:54:56.780Z,196.50
2024-03-08T07:55:56.786Z,194.58
2024-03-08T07:56:56.759Z,194.47
2024-03-08T07:57:56.783Z,194.09
2024-03-08T07:58:56.944Z,194.81
2024-03-08T07:59:56.825Z,194.82
2024-03-08T08:00:56.911Z,194.53
2024-03-08T08:01:57.059Z,193.11
2024-03-08T08:02:57.120Z,194.25
2024-03-08T08:03:57.176Z,193.55
2024-03-08T08:04:57.240Z,192.28
2024-03-08T08:05:57.282Z,193.33
2024-03-08T08:06:57.357Z,193.06
2024-03-08T08:07:57.863Z,194.54
2024-03-08T08:08:57.460Z,193.65
2024-03-08T08:09:57.530Z,193.16
2024-03-08T08:10:57.764Z,191.21
2024-03-08T08:11:57.653Z,192.96
2024-03-08T08:12:57.753Z,191.71
2024-03-08T08:13:57.821Z,192.13
2024-03-08T08:14:57.872Z,191.82
2024-03-08T08:15:57.942Z,191.41
2024-03-08T08:16:57.988Z,192.39
2024-03-08T08:17:58.119Z,193.39
2024-03-08T08:18:58.150Z,190.98
2024-03-08T08:19:58.240Z,192.14
2024-03-08T08:20:58.250Z,190.86
2024-03-08T08:21:58.306Z,189.95
2024-03-08T08:22:58.396Z,191.90
2024-03-08T08:23:58.444Z,189.60
2024-03-08T08:24:58.521Z,192.22
2024-03-08T08:25:58.643Z,192.68
2024-03-08T08:26:58.651Z,192.64
2024-03-08T08:27:58.724Z,190.42
2024-03-08T08:28:58.785Z,190.18
2024-03-08T08:29:58.861Z,191.13
2024-03-08T08:30:58.939Z,190.57
2024-03-08T08:31:59.754Z,191.59
2024-03-08T08:32:59.305Z,191.01
2024-03-08T08:33:59.141Z,190.23
2024-03-08T08:34:59.264Z,189.46
2024-03-08T08:35:59.259Z,189.10
2024-03-08T08:36:59.339Z,186.04
2024-03-08T08:37:59.398Z,187.44
2024-03-08T08:38:59.460Z,187.23
2024-03-08T08:39:59.503Z,184.39
2024-03-08T08:40:59.600Z,183.98
2024-03-08T08:41:59.775Z,183.83
2024-03-08T08:42:59.767Z,184.36
2024-03-08T08:44:08.870Z,182.57
2024-03-08T08:45:09.078Z,182.65
2024-03-08T08:46:00.795Z,182.78
2024-03-08T08:47:06.276Z,182.99
2024-03-08T08:48:01.306Z,182.82
2024-03-08T08:48:59.816Z,182.95
2024-03-08T08:49:59.822Z,182.75
2024-03-08T08:50:59.810Z,181.71
2024-03-08T08:52:06.470Z,181.00
2024-03-08T08:53:00.868Z,182.62
2024-03-08T08:53:59.819Z,182.67
2024-03-08T08:54:59.842Z,180.46
2024-03-08T08:55:59.825Z,177.84
2024-03-08T08:56:59.853Z,178.20
2024-03-08T08:57:59.806Z,177.51
2024-03-08T08:58:59.875Z,177.50
2024-03-08T08:59:59.831Z,176.80
2024-03-08T09:00:59.899Z,177.74
2024-03-08T09:02:00.002Z,177.32
2024-03-08T09:02:59.981Z,176.66
2024-03-08T09:04:00.045Z,176.19
2024-03-08T09:05:00.289Z,175.67
2024-03-08T09:06:00.163Z,177.32
2024-03-08T09:07:00.789Z,174.98
2024-03-08T09:08:00.417Z,173.83
2024-03-08T09:09:02.362Z,173.42
2024-03-08T09:10:00.930Z,173.58
2024-03-08T09:11:01.468Z,173.70
2024-03-08T09:12:00.657Z,173.88
2024-03-08T09:13:00.341Z,174.53
2024-03-08T09:14:00.517Z,173.45
2024-03-08T09:15:00.369Z,176.64
2024-03-08T09:16:00.369Z,174.37
2024-03-08T09:17:00.416Z,173.62
2024-03-08T09:18:00.618Z,173.87
2024-03-08T09:19:00.463Z,172.57
2024-03-08T09:20:00.541Z,173.83
2024-03-08T09:21:00.489Z,174.77
2024-03-08T09:22:00.599Z,172.06
2024-03-08T09:23:00.697Z,173.73
2024-03-08T09:24:00.735Z,179.24
2024-03-08T09:25:00.763Z,193.38
2024-03-08T09:26:00.951Z,200.00
2024-03-08T09:27:00.893Z,187.80
2024-03-08T09:28:00.861Z,180.27
2024-03-08T09:29:00.952Z,168.71
2024-03-08T09:30:00.886Z,155.24
2024-03-08T09:31:00.959Z,146.85
2024-03-08T09:32:00.917Z,138.20
2024-03-08T09:33:00.978Z,127.95
2024-03-08T09:34:00.980Z,120.48
2024-03-08T09:35:01.052Z,110.58
2024-03-08T09:37:07.707Z,50.00
2024-03-08T09:38:07.641Z,50.00
2024-03-08T09:39:07.672Z,50.00
2024-03-08T09:40:07.678Z,50.00
2024-03-08T09:41:07.661Z,50.00
2024-03-08T09:42:07.714Z,50.00
2024-03-08T09:43:07.656Z,50.00
2024-03-08T09:44:07.666Z,47.02
2024-03-08T09:45:07.733Z,50.00
2024-03-08T09:46:07.675Z,49.57
2024-03-08T09:47:07.667Z,50.00
2024-03-08T09:48:07.685Z,51.76
2024-03-08T09:49:07.829Z,49.83
2024-03-08T09:50:07.656Z,50.31
2024-03-08T09:51:07.668Z,50.00
2024-03-08T09:52:07.703Z,50.00
2024-03-08T09:53:07.732Z,51.45
2024-03-08T09:54:14.476Z,50.00
2024-03-08T09:55:08.793Z,50.14
2024-03-08T09:56:07.765Z,50.77
2024-03-08T09:57:07.774Z,51.53
2024-03-08T09:58:07.775Z,50.20
2024-03-08T09:59:07.844Z,50.30
2024-03-08T10:00:07.784Z,52.84
2024-03-08T10:01:07.835Z,51.20
2024-03-08T10:02:07.875Z,50.07
2024-03-08T10:03:07.773Z,50.83
2024-03-08T10:04:07.838Z,53.13
2024-03-08T10:05:07.829Z,52.82
2024-03-08T10:06:07.851Z,52.50
2024-03-08T10:07:07.892Z,50.89
2024-03-08T10:08:07.972Z,48.91
2024-03-08T10:09:07.985Z,40.94
2024-03-08T10:10:08.030Z,41.92
2024-03-08T10:11:08.223Z,38.99
2024-03-08T10:12:08.133Z,50.00
2024-03-08T10:13:08.139Z,51.45
2024-03-08T10:14:08.203Z,50.53
2024-03-08T10:15:08.234Z,51.80
2024-03-08T10:16:08.314Z,53.01
2024-03-08T10:17:08.315Z,50.35
2024-03-08T10:18:08.402Z,55.37
2024-03-08T10:19:08.407Z,50.00
2024-03-08T10:20:08.414Z,53.09
2024-03-08T10:21:08.693Z,53.16
2024-03-08T10:22:09.276Z,51.86
2024-03-08T10:23:11.574Z,51.65
2024-03-08T10:24:08.501Z,52.12
2024-03-08T10:25:08.523Z,51.78
2024-03-08T10:26:08.591Z,50.00
2024-03-08T10:27:08.588Z,50.84
2024-03-08T10:28:08.573Z,54.78
2024-03-08T10:29:08.777Z,51.41
2024-03-08T10:30:08.564Z,49.67
2024-03-08T10:31:08.538Z,52.67
2024-03-08T10:32:08.671Z,51.21
2024-03-08T10:33:08.603Z,50.20
2024-03-08T10:34:08.566Z,50.48
2024-03-08T10:35:08.541Z,51.97
2024-03-08T10:36:08.520Z,51.98
2024-03-08T10:37:08.525Z,52.96
2024-03-08T10:38:08.530Z,52.99
2024-03-08T10:39:08.538Z,53.17
2024-03-08T10:40:08.508Z,52.33
2024-03-08T10:41:08.586Z,55.39
2024-03-08T10:42:08.548Z,56.50
2024-03-08T10:43:08.521Z,55.83
2024-03-08T10:44:08.637Z,54.86
2024-03-08T10:45:08.528Z,55.62
2024-03-08T10:46:08.520Z,60.31
2024-03-08T10:47:08.524Z,72.64
2024-03-08T10:48:08.606Z,83.66
2024-03-08T10:49:08.774Z,90.00
2024-03-08T10:50:08.523Z,92.07
2024-03-08T10:51:08.830Z,98.82
2024-03-08T10:52:08.534Z,101.80
2024-03-08T10:53:08.531Z,107.90
2024-03-08T10:54:08.538Z,111.51
2024-03-08T10:55:08.532Z,114.82
2024-03-08T10:56:08.730Z,119.99
2024-03-08T10:57:08.522Z,120.31
2024-03-08T10:58:08.529Z,122.13
2024-03-08T10:59:08.547Z,126.24
2024-03-08T11:00:08.520Z,130.52
2024-03-08T11:01:08.608Z,133.27
2024-03-08T11:02:08.604Z,139.55
2024-03-08T11:03:08.522Z,141.06
2024-03-08T11:04:08.552Z,144.17
2024-03-08T11:05:08.561Z,147.51
2024-03-08T11:06:08.546Z,154.75
2024-03-08T11:07:08.581Z,158.42
2024-03-08T11:08:08.533Z,159.16
2024-03-08T11:09:08.606Z,168.03
2024-03-08T11:10:08.696Z,170.32
2024-03-08T11:11:08.894Z,168.43
2024-03-08T11:12:08.855Z,170.25
2024-03-08T11:13:08.874Z,168.80
2024-03-08T11:14:08.964Z,169.91
2024-03-08T11:15:09.043Z,170.73
2024-03-08T11:16:09.069Z,168.45
2024-03-08T11:17:09.182Z,169.18
2024-03-08T11:18:09.287Z,167.95
2024-03-08T11:19:09.307Z,168.56
2024-03-08T11:20:09.311Z,173.35
2024-03-08T11:21:09.379Z,171.33
2024-03-08T11:22:09.549Z,174.81
2024-03-08T11:23:11.828Z,171.47
2024-03-08T11:24:09.617Z,170.06
2024-03-08T11:25:09.677Z,172.05
2024-03-08T11:26:09.730Z,174.92
2024-03-08T11:27:09.763Z,170.30
2024-03-08T11:28:09.956Z,169.84
2024-03-08T11:29:09.875Z,173.93
2024-03-08T11:30:09.967Z,184.61
2024-03-08T11:31:10.005Z,196.55
2024-03-08T11:32:10.148Z,199.49
2024-03-08T11:33:10.884Z,200.00
2024-03-08T11:34:10.226Z,198.45
2024-03-08T11:35:10.237Z,200.00
2024-03-08T11:36:10.356Z,197.30
2024-03-08T11:37:10.336Z,194.55
2024-03-08T11:38:10.352Z,194.68
2024-03-08T11:39:10.417Z,197.14
2024-03-08T11:40:10.405Z,200.00
2024-03-08T11:41:10.509Z,198.58
2024-03-08T11:42:10.492Z,198.57
2024-03-08T11:43:10.506Z,199.92
2024-03-08T11:44:10.813Z,196.78
2024-03-08T11:45:10.610Z,196.65
2024-03-08T11:46:10.620Z,196.96
2024-03-08T11:47:10.670Z,194.51
2024-03-08T11:48:10.692Z,188.45
2024-03-08T11:49:10.737Z,186.01
2024-03-08T11:50:10.770Z,179.69
2024-03-08T11:51:10.787Z,176.73
2024-03-08T11:52:10.767Z,176.53
2024-03-08T11:53:10.779Z,172.82
2024-03-08T11:54:10.787Z,172.69
2024-03-08T11:55:10.791Z,174.63
2024-03-08T11:56:11.075Z,175.34
2024-03-08T11:57:10.802Z,172.21
2024-03-08T11:58:10.851Z,173.98
2024-03-08T11:59:10.810Z,178.73
2024-03-08T12:00:10.884Z,182.16
2024-03-08T12:01:10.944Z,187.97
2024-03-08T12:02:10.985Z,191.84
2024-03-08T12:03:11.005Z,197.48
2024-03-08T12:04:10.992Z,200.92
2024-03-08T12:05:10.894Z,197.12
2024-03-08T12:06:11.019Z,199.19
2024-03-08T12:07:10.891Z,199.97
2024-03-08T12:08:11.081Z,199.38
2024-03-08T12:09:10.890Z,197.99
2024-03-08T12:10:10.901Z,198.42
2024-03-08T12:11:11.066Z,199.18
2024-03-08T12:12:11.002Z,198.41
2024-03-08T12:13:10.945Z,196.98
2024-03-08T12:14:10.990Z,200.00
2024-03-08T12:15:10.984Z,199.39
2024-03-08T12:16:11.022Z,199.09
2024-03-08T12:17:13.660Z,200.00
2024-03-08T12:18:11.051Z,196.73
2024-03-08T12:19:11.050Z,199.60
2024-03-08T12:20:11.027Z,196.62
2024-03-08T12:21:11.098Z,197.55
2024-03-08T12:22:11.070Z,198.11
2024-03-08T12:23:11.034Z,198.30
2024-03-08T12:24:11.329Z,198.04
2024-03-08T12:25:11.038Z,198.94
2024-03-08T12:26:11.048Z,196.79
2024-03-08T12:27:11.038Z,199.67
2024-03-08T12:28:11.068Z,198.01
2024-03-08T12:29:11.406Z,199.45
2024-03-08T12:30:11.111Z,199.99
2024-03-08T12:31:11.097Z,198.48
2024-03-08T12:32:11.024Z,198.51
2024-03-08T12:33:11.045Z,198.14
2024-03-08T12:34:11.029Z,199.87
2024-03-08T12:35:11.066Z,199.34
2024-03-08T12:36:11.037Z,198.56
2024-03-08T12:37:11.138Z,200.00
2024-03-08T12:38:11.033Z,197.72
2024-03-08T12:39:11.048Z,198.14
2024-03-08T12:40:11.083Z,199.43
2024-03-08T12:41:11.069Z,199.77
2024-03-08T12:42:11.077Z,199.89
2024-03-08T12:43:11.067Z,199.89
2024-03-08T12:44:11.055Z,200.00
2024-03-08T12:45:11.053Z,199.01
2024-03-08T12:46:11.840Z,198.78
2024-03-08T12:47:11.082Z,195.46